Terminal Aerodrome Forecast
Issued by NWS

Home | Current Version | Previous Version | Text Only | Print | Product List | Glossary On
Versions: 1 2 3 4 5 6 7 8 9 10 11 12 13
529
FTUS46 KMTR 270532
TAFOAK
TAF
KOAK 270532Z 2706/2812 VRB03KT P6SM SKC
     FM270800 02008KT P6SM SKC
     FM272000 30010KT P6SM SKC
     FM280400 28008KT P6SM SKC=

USA.gov is the U.S. government's official web portal to all federal, state and local government web resources and services.